This is the latest recevied weather packets stored in our database for station/object DF9PM-13. If no packets are shown the sender has not sent any weather packets the latest 10 day(s).
| Time | Temp. | Humidity | Pressure | Rain* | Wind** | Luminosity | Snow |
|---|---|---|---|---|---|---|---|
| 1777339703 | 12.78° C | 44% | 1018.7 hPa | - | - | - | - |
| 1777339403 | 12.78° C | 44% | 1018.7 hPa | - | - | - | - |
| 1777339103 | 13.33° C | 43% | 1018.7 hPa | - | - | - | - |
| 1777338803 | 12.78° C | 43% | 1018.7 hPa | - | - | - | - |
| 1777338503 | 12.78° C | 43% | 1018.7 hPa | - | - | - | - |
| 1777338203 | 13.33° C | 43% | 1018.7 hPa | - | - | - | - |
| 1777337903 | 13.33° C | 43% | 1018.7 hPa | - | - | - | - |
| 1777337603 | 13.33° C | 43% | 1018.7 hPa | - | - | - | - |
| 1777337303 | 13.33° C | 43% | 1018.8 hPa | - | - | - | - |
| 1777337003 | 13.33° C | 42% | 1018.8 hPa | - | - | - | - |
| 1777335502 | 13.33° C | 41% | 1018.9 hPa | - | - | - | - |
| 1777332502 | 13.89° C | 40% | 1018.7 hPa | - | - | - | - |
| 1777313898 | 18.33° C | 29% | 1018.9 hPa | - | - | - | - |
| 1777313298 | 18.89° C | 28% | 1019 hPa | - | - | - | - |
| 1777312998 | 18.89° C | 28% | 1019 hPa | - | - | - | - |
| 1777312698 | 18.33° C | 28% | 1019 hPa | - | - | - | - |
| 1777312398 | 18.89° C | 27% | 1019 hPa | - | - | - | - |
| 1777312098 | 18.89° C | 28% | 1019 hPa | - | - | - | - |
| 1777311498 | 19.44° C | 26% | 1018.9 hPa | - | - | - | - |
| 1777311197 | 19.44° C | 25% | 1018.9 hPa | - | - | - | - |
| 1777310898 | 19.44° C | 26% | 1018.9 hPa | - | - | - | - |
| 1777309097 | 20.56° C | 24% | 1019 hPa | - | - | - | - |
| 1777307897 | 21.11° C | 21% | 1019 hPa | - | - | - | - |
| 1777307297 | 21.11° C | 22% | 1019.3 hPa | - | - | - | - |
| 1777306997 | 21.67° C | 23% | 1019.3 hPa | - | - | - | - |
* Rain since midnight (hover to see other rain measurements)
** Current wind speed in m/s (hover to see current wind gust speed)